Archiv-/Tagesdaten

--Timestamp---	Temp	Chill	HIndex	Humid	Dewpt	 Wind 	HiWind	WindDir	Rain 	Barom	Solar	 ET  	 UV 
--------------	----	-----	------	-----	-----	------	------	-------	-----	-----	-----	-----	----
20101221 00:00	1.7	1.7	1.7	91	0.4	0	0	-100000	0.0	1009.1	0	0.000	0.0
20101221 00:05	1.6	1.6	1.6	91	0.2	0	0	-100000	0.0	1009.0	0	0.000	0.0
20101221 00:10	1.6	1.6	1.6	91	0.2	0	0	-100000	0.0	1008.9	0	0.000	0.0
20101221 00:15	1.6	1.6	1.6	91	0.3	2	3	292	0.0	1008.9	0	0.000	0.0
20101221 00:20	1.7	1.7	1.7	91	0.4	2	5	292	0.0	1008.7	0	0.000	0.0
20101221 00:25	1.7	1.7	1.7	91	0.4	2	5	292	0.0	1008.8	0	0.000	0.0
20101221 00:30	1.7	1.7	1.7	91	0.4	3	6	292	0.0	1008.9	0	0.000	0.0
20101221 00:35	1.7	1.7	1.7	91	0.4	2	6	292	0.0	1008.9	0	0.000	0.0
20101221 00:40	1.7	1.7	1.7	91	0.4	2	5	292	0.0	1008.9	0	0.000	0.0
20101221 00:45	1.6	1.6	1.6	91	0.2	3	5	292	0.0	1008.9	0	0.000	0.0
20101221 00:50	1.6	1.6	1.6	91	0.2	2	5	292	0.0	1008.9	0	0.000	0.0
20101221 00:55	1.6	1.6	1.6	91	0.2	2	5	292	0.0	1008.8	0	0.000	0.0
20101221 01:00	1.4	1.4	1.4	91	0.1	2	6	292	0.0	1008.7	0	0.000	0.0
20101221 01:05	1.4	1.4	1.4	91	0.1	3	6	292	0.0	1008.7	0	0.000	0.0
20101221 01:10	1.3	1.3	1.3	91	0.0	2	5	292	0.0	1008.7	0	0.000	0.0
20101221 01:15	1.3	1.3	1.3	91	0.0	3	6	292	0.0	1008.6	0	0.000	0.0
20101221 01:20	1.3	1.3	1.3	92	0.2	2	5	292	0.0	1008.6	0	0.000	0.0
20101221 01:25	1.3	1.3	1.3	92	0.2	2	6	292	0.0	1008.5	0	0.000	0.0
20101221 01:30	1.3	1.3	1.3	92	0.2	2	5	292	0.0	1008.5	0	0.000	0.0
20101221 01:35	1.3	1.3	1.3	92	0.2	3	8	292	0.0	1008.5	0	0.000	0.0
20101221 01:40	1.3	1.3	1.3	92	0.2	5	10	135	0.0	1008.5	0	0.000	0.0
20101221 01:45	1.3	1.3	1.3	92	0.2	5	10	135	0.0	1008.4	0	0.000	0.0
20101221 01:50	1.3	1.3	1.3	92	0.2	5	8	135	0.0	1008.3	0	0.000	0.0
20101221 01:55	1.3	-0.6	1.3	92	0.2	6	10	135	0.0	1008.4	0	0.000	0.0
20101221 02:00	1.3	1.3	1.3	92	0.2	5	8	135	0.0	1008.4	0	0.000	0.0
20101221 02:05	1.3	-0.6	1.3	92	0.2	6	10	158	0.0	1008.3	0	0.000	0.0
20101221 02:10	1.3	1.3	1.3	92	0.2	5	8	135	0.0	1008.3	-100000	0.000	0.0
20101221 02:15	1.3	-0.7	1.3	92	0.1	6	16	135	0.0	1008.2	0	0.000	0.0
20101221 02:20	1.3	-0.7	1.3	92	0.1	6	11	135	0.0	1008.3	0	0.000	0.0
20101221 02:25	1.3	-0.7	1.3	92	0.1	6	11	135	0.0	1008.3	0	0.000	0.0
20101221 02:30	1.3	1.3	1.3	92	0.2	5	11	158	0.0	1008.2	0	0.000	0.0
20101221 02:35	1.3	1.3	1.3	92	0.2	5	11	158	0.0	1008.1	0	0.000	0.0
20101221 02:40	1.3	1.3	1.3	92	0.2	5	11	158	0.0	1008.2	0	0.000	0.0
20101221 02:45	1.3	1.3	1.3	92	0.2	3	8	158	0.0	1008.2	0	0.000	0.0
20101221 02:50	1.3	1.3	1.3	92	0.2	5	11	158	0.0	1008.2	0	0.000	0.0
20101221 02:55	1.3	1.3	1.3	92	0.2	5	10	158	0.0	1008.1	0	0.000	0.0
20101221 03:00	1.3	1.3	1.3	92	0.2	5	10	158	0.0	1008.0	0	0.000	0.0
20101221 03:05	1.3	1.3	1.3	92	0.2	5	10	180	0.0	1007.7	0	0.000	0.0
20101221 03:10	1.3	1.3	1.3	92	0.2	5	10	135	0.0	1007.7	0	0.000	0.0
20101221 03:15	1.3	1.3	1.3	92	0.2	5	10	158	0.0	1007.7	0	0.000	0.0
20101221 03:20	1.3	1.3	1.3	92	0.2	5	11	135	0.0	1007.5	0	0.000	0.0
20101221 03:25	1.3	1.3	1.3	92	0.2	5	11	158	0.0	1007.6	0	0.000	0.0
20101221 03:30	1.3	1.3	1.3	92	0.2	5	10	135	0.0	1007.7	0	0.000	0.0
20101221 03:35	1.3	1.3	1.3	92	0.2	5	11	158	0.0	1007.6	0	0.000	0.0
20101221 03:40	1.3	1.3	1.3	92	0.2	3	6	158	0.0	1007.5	0	0.000	0.0
20101221 03:45	1.3	-0.6	1.3	92	0.2	6	10	158	0.0	1007.6	0	0.000	0.0
20101221 03:50	1.3	-0.6	1.3	92	0.2	6	11	158	0.0	1007.3	0	0.000	0.0
20101221 03:55	1.3	-0.6	1.3	92	0.2	6	13	135	0.0	1007.4	0	0.000	0.0
20101221 04:00	1.3	-1.6	1.3	92	0.2	10	18	158	0.0	1007.3	0	0.000	0.0
20101221 04:05	1.3	-1.6	1.3	92	0.2	10	19	135	0.0	1007.0	0	0.000	0.0
20101221 04:10	1.3	-1.6	1.3	92	0.2	10	16	135	0.0	1007.1	0	0.000	0.0
20101221 04:15	1.3	1.3	1.3	92	0.2	5	10	158	0.0	1007.0	0	0.000	0.0
20101221 04:20	1.3	1.3	1.3	92	0.2	5	8	158	0.0	1006.9	0	0.000	0.0
20101221 04:25	1.2	1.2	1.2	92	0.1	5	8	158	0.0	1006.9	0	0.000	0.0
20101221 04:30	1.3	-0.7	1.3	92	0.1	6	10	158	0.0	1006.9	0	0.000	0.0
20101221 04:35	1.2	-0.8	1.2	92	0.1	6	10	180	0.0	1006.7	0	0.000	0.0
20101221 04:40	1.2	-0.8	1.2	92	0.1	6	14	158	0.0	1006.7	0	0.000	0.0
20101221 04:45	1.2	1.2	1.2	92	0.1	5	10	180	0.0	1006.7	0	0.000	0.0
20101221 04:50	1.2	-1.4	1.2	92	0.0	8	16	158	0.0	1006.6	0	0.000	0.0
20101221 04:55	1.1	-0.9	1.1	91	-0.2	6	11	158	0.0	1006.5	0	0.000	0.0
20101221 05:00	1.1	-1.0	1.1	91	-0.2	6	10	158	0.0	1006.5	0	0.000	0.0
20101221 05:05	1.0	1.0	1.0	91	-0.3	5	6	158	0.0	1006.5	0	0.000	0.0
20101221 05:10	0.9	0.9	0.9	91	-0.4	3	6	158	0.0	1006.5	0	0.000	0.0
20101221 05:15	0.9	0.9	0.9	90	-0.5	5	10	180	0.0	1006.5	0	0.000	0.0
20101221 05:20	0.8	0.8	0.8	91	-0.5	5	8	135	0.0	1006.4	0	0.000	0.0
20101221 05:25	0.8	0.8	0.8	90	-0.7	5	8	158	0.0	1006.4	0	0.000	0.0
20101221 05:30	0.7	0.7	0.7	90	-0.7	5	11	158	0.0	1006.5	0	0.000	0.0
20101221 05:35	0.7	0.7	0.7	90	-0.8	5	8	202	0.0	1006.5	0	0.000	0.0
20101221 05:40	0.7	-1.4	0.7	90	-0.8	6	11	158	0.0	1006.2	0	0.000	0.0
20101221 05:45	0.6	-1.5	0.6	90	-0.9	6	16	158	0.0	1006.2	0	0.000	0.0
20101221 05:50	0.5	-1.6	0.5	90	-0.9	6	11	158	0.0	1006.1	0	0.000	0.0
20101221 05:55	0.5	-1.6	0.5	90	-0.9	6	10	158	0.0	1006.1	0	0.000	0.0
20101221 06:00	0.4	-1.7	0.4	90	-1.0	6	11	180	0.0	1006.1	0	0.000	0.0
20101221 06:05	0.4	0.4	0.4	90	-1.1	5	8	158	0.0	1006.0	0	0.000	0.0
20101221 06:10	0.3	0.3	0.3	90	-1.1	5	8	158	0.0	1006.1	0	0.000	0.0
20101221 06:15	0.3	0.3	0.3	90	-1.2	5	10	158	0.0	1006.1	0	0.000	0.0
20101221 06:20	0.3	0.3	0.3	90	-1.2	5	10	180	0.0	1006.1	0	0.000	0.0
20101221 06:25	0.2	0.2	0.2	90	-1.2	5	8	180	0.0	1006.3	0	0.000	0.0
20101221 06:30	0.2	0.2	0.2	90	-1.3	3	6	180	0.0	1006.3	0	0.000	0.0
20101221 06:35	0.1	0.1	0.1	90	-1.3	3	6	180	0.0	1006.4	0	0.000	0.0
20101221 06:40	0.1	0.1	0.1	90	-1.4	5	11	180	0.0	1006.3	0	0.000	0.0
20101221 06:45	0.1	-2.1	0.1	90	-1.4	6	10	180	0.0	1006.4	0	0.000	0.0
20101221 06:50	0.1	-3.1	0.1	90	-1.3	10	16	180	0.0	1006.3	0	0.000	0.0
20101221 06:55	0.2	-2.5	0.2	90	-1.3	8	14	180	0.0	1006.3	0	0.000	0.0
20101221 07:00	0.2	-2.5	0.2	90	-1.3	8	14	180	0.0	1006.3	0	0.000	0.0
20101221 07:05	0.2	-2.0	0.2	90	-1.3	6	13	180	0.0	1006.6	0	0.000	0.0
20101221 07:10	0.1	0.1	0.1	90	-1.3	5	10	180	0.0	1006.6	0	0.000	0.0
20101221 07:15	0.1	0.1	0.1	90	-1.4	5	8	225	0.0	1006.8	0	0.000	0.0
20101221 07:20	0.0	0.0	0.0	90	-1.4	5	10	225	0.0	1006.7	0	0.000	0.0
20101221 07:25	-0.1	-2.2	-0.1	90	-1.5	6	11	202	0.0	1006.7	0	0.000	0.0
20101221 07:30	-0.1	-0.1	-0.1	90	-1.6	5	10	202	0.0	1006.8	0	0.000	0.0
20101221 07:35	-0.1	-0.1	-0.1	90	-1.6	5	8	202	0.0	1006.7	0	0.000	0.0
20101221 07:40	-0.2	-0.2	-0.2	90	-1.7	3	6	202	0.0	1006.7	0	0.000	0.0
20101221 07:45	-0.2	-0.2	-0.2	90	-1.7	5	11	158	0.0	1006.6	0	0.000	0.0
20101221 07:50	-0.3	-0.3	-0.3	90	-1.7	5	10	158	0.0	1006.7	0	0.000	0.0
20101221 07:55	-0.2	-2.4	-0.2	90	-1.7	6	11	180	0.0	1006.7	0	0.000	0.0
20101221 08:00	-0.3	-2.5	-0.3	90	-1.7	6	10	180	0.0	1006.6	0	0.000	0.0
20101221 08:05	-0.2	-3.0	-0.2	90	-1.7	8	16	180	0.0	1006.7	0	0.000	0.0
20101221 08:10	-0.2	-2.4	-0.2	90	-1.7	6	16	180	0.0	1006.7	3	0.000	0.0
20101221 08:15	-0.2	-2.4	-0.2	90	-1.6	6	10	180	0.0	1006.8	6	0.000	0.0
20101221 08:20	-0.1	-2.9	-0.1	90	-1.6	8	14	180	0.0	1006.9	7	0.000	0.0
20101221 08:25	-0.1	-2.9	-0.1	90	-1.6	8	16	180	0.0	1007.0	9	0.000	0.0
20101221 08:30	-0.1	-2.3	-0.1	90	-1.6	6	10	180	0.0	1006.9	11	0.000	0.0
20101221 08:35	-0.1	-0.1	-0.1	90	-1.6	5	10	180	0.0	1006.9	12	0.000	0.0
20101221 08:40	-0.2	-0.2	-0.2	90	-1.6	5	8	180	0.0	1007.0	12	0.000	0.0
20101221 08:45	-0.2	-0.2	-0.2	90	-1.6	5	8	180	0.0	1007.0	14	0.000	0.0
20101221 08:50	-0.1	-2.3	-0.1	90	-1.6	6	10	202	0.0	1007.1	14	0.000	0.0
20101221 08:55	-0.1	-0.1	-0.1	90	-1.5	5	8	202	0.0	1007.1	15	0.000	0.0
20101221 09:00	-0.1	-0.1	-0.1	90	-1.5	5	10	180	0.0	1007.2	16	0.000	0.0
20101221 09:05	0.0	-2.2	0.0	90	-1.4	6	11	180	0.0	1007.4	17	0.000	0.0
20101221 09:10	0.2	-2.5	0.2	90	-1.3	8	18	180	0.0	1007.5	18	0.000	0.0
20101221 09:15	0.3	-2.4	0.3	90	-1.2	8	11	180	0.0	1007.4	18	0.000	0.0
20101221 09:20	0.3	-2.3	0.3	90	-1.1	8	16	180	0.0	1007.5	19	0.000	0.0
20101221 09:25	0.4	-1.7	0.4	90	-1.0	6	13	180	0.0	1007.6	19	0.000	0.0
20101221 09:30	0.5	-2.6	0.5	89	-1.1	10	16	180	0.0	1007.6	19	0.000	0.0
20101221 09:35	0.6	-2.5	0.6	89	-1.0	10	14	180	0.0	1007.6	21	0.000	0.0
20101221 09:40	0.7	-1.9	0.7	89	-0.9	8	16	180	0.0	1007.6	21	0.000	0.0
20101221 09:45	0.9	-1.7	0.9	89	-0.7	8	16	180	0.0	1007.5	22	0.000	0.0
20101221 09:50	1.1	-1.5	1.1	88	-0.7	8	14	180	0.0	1007.5	24	0.000	0.0
20101221 09:55	1.2	-1.7	1.2	88	-0.5	10	16	158	0.0	1007.5	26	0.000	0.0
20101221 10:00	1.3	-1.2	1.3	88	-0.4	8	16	180	0.0	1007.5	28	0.025	0.0
20101221 10:05	1.4	-1.0	1.4	87	-0.5	8	14	180	0.0	1007.4	29	0.000	0.0
20101221 10:10	1.6	-0.8	1.6	87	-0.3	8	13	158	0.0	1007.4	-100000	0.000	0.0
20101221 10:15	1.8	-0.6	1.8	87	-0.2	8	13	180	0.0	1007.3	38	0.000	0.0
20101221 10:20	1.9	0.1	1.9	86	-0.1	6	11	158	0.0	1007.4	40	0.000	0.0
20101221 10:25	2.1	0.2	2.1	86	-0.0	6	10	158	0.0	1007.4	40	0.000	0.0
20101221 10:30	2.2	0.3	2.2	85	-0.1	6	11	180	0.0	1007.5	42	0.000	0.0
20101221 10:35	2.3	0.5	2.3	85	0.1	6	10	180	0.0	1007.4	48	0.000	0.0
20101221 10:40	2.5	0.7	2.5	85	0.2	6	10	180	0.0	1007.4	53	0.000	0.0
20101221 10:45	2.7	0.4	2.7	84	0.2	8	13	158	0.0	1007.3	50	0.000	0.0
20101221 10:50	2.8	2.8	2.8	84	0.4	5	11	158	0.0	1007.3	51	0.000	0.0
20101221 10:55	3.0	3.0	3.0	84	0.6	5	10	180	0.0	1007.4	60	0.000	0.5
20101221 11:00	3.2	3.2	3.2	83	0.6	5	8	158	0.0	1007.3	78	0.025	0.6
20101221 11:05	3.3	3.3	3.3	82	0.5	5	11	158	0.0	1007.1	115	0.000	0.6
20101221 11:10	3.4	3.4	3.4	82	0.6	5	10	158	0.0	1007.2	198	0.000	0.7
20101221 11:15	3.6	1.9	3.6	82	0.8	6	14	158	0.0	1007.1	151	0.000	0.7
20101221 11:20	3.6	2.0	3.6	82	0.8	6	11	158	0.0	1006.9	139	0.000	0.7
20101221 11:25	3.7	3.7	3.7	82	0.9	5	10	158	0.0	1006.8	172	0.000	0.7
20101221 11:30	3.8	2.2	3.8	81	0.9	6	10	158	0.0	1006.7	156	0.000	0.7
20101221 11:35	3.9	2.4	3.9	81	1.0	6	10	158	0.0	1006.7	157	0.000	0.7
20101221 11:40	4.1	4.1	4.1	81	1.1	3	8	158	0.0	1006.6	158	0.000	0.7
20101221 11:45	4.2	2.7	4.2	80	1.1	6	10	180	0.0	1006.6	170	0.000	0.7
20101221 11:50	4.3	4.3	4.3	80	1.2	5	10	158	0.0	1006.6	176	0.000	0.7
20101221 11:55	4.4	2.9	4.4	79	1.1	6	14	180	0.0	1006.6	156	0.000	0.7
20101221 12:00	4.4	2.9	4.4	79	1.1	6	11	180	0.0	1006.6	156	0.076	0.7
20101221 12:05	4.4	2.9	4.4	79	1.1	6	11	180	0.0	1006.6	153	0.000	0.7
20101221 12:10	4.3	2.8	4.3	79	1.0	6	11	180	0.0	1006.7	158	0.000	0.7
20101221 12:15	4.3	2.8	4.3	79	1.0	6	13	180	0.0	1006.7	158	0.000	0.7
20101221 12:20	4.3	2.8	4.3	80	1.1	6	11	180	0.0	1006.7	160	0.000	0.7
20101221 12:25	4.3	2.8	4.3	80	1.2	6	10	180	0.0	1006.7	165	0.000	0.7
20101221 12:30	4.4	2.9	4.4	80	1.2	6	11	180	0.0	1006.7	162	0.000	0.7
20101221 12:35	4.4	4.4	4.4	80	1.3	5	10	180	0.0	1006.7	160	0.000	0.7
20101221 12:40	4.5	4.5	4.5	79	1.2	5	8	180	0.0	1006.6	154	0.000	0.6
20101221 12:45	4.6	3.1	4.6	79	1.2	6	10	180	0.0	1006.6	136	0.000	0.6
20101221 12:50	4.6	3.1	4.6	78	1.1	6	10	180	0.0	1006.6	138	0.000	0.6
20101221 12:55	4.6	3.1	4.6	78	1.1	6	10	180	0.0	1006.6	140	0.000	0.6
20101221 13:00	4.6	4.6	4.6	78	1.1	5	6	180	0.0	1006.6	135	0.076	0.6
20101221 13:05	4.7	4.7	4.7	78	1.2	5	8	180	0.0	1006.7	143	0.000	0.6
20101221 13:10	4.7	4.7	4.7	78	1.2	5	10	180	0.0	1006.7	156	0.000	0.6
20101221 13:15	4.7	4.7	4.7	78	1.2	5	10	180	0.0	1006.7	152	0.000	0.6
20101221 13:20	4.8	4.8	4.8	78	1.3	5	6	180	0.0	1006.6	140	0.000	0.6
20101221 13:25	4.8	4.8	4.8	78	1.3	5	8	180	0.0	1006.6	124	0.000	0.5
20101221 13:30	4.9	4.9	4.9	78	1.4	5	8	180	0.0	1006.5	120	0.000	0.5
20101221 13:35	4.9	4.9	4.9	78	1.4	3	8	158	0.0	1006.4	120	0.000	0.5
20101221 13:40	5.0	5.0	5.0	77	1.3	5	11	158	0.0	1006.4	133	0.000	0.5
20101221 13:45	5.1	5.1	5.1	76	1.2	5	8	158	0.0	1006.3	146	0.000	0.5
20101221 13:50	5.1	5.1	5.1	76	1.2	3	6	158	0.0	1006.2	140	0.000	0.5
20101221 13:55	5.1	5.1	5.1	76	1.2	5	8	180	0.0	1006.2	126	0.000	0.5
20101221 14:00	5.2	5.2	5.2	76	1.3	3	6	135	0.0	1006.2	121	0.076	0.5
20101221 14:05	5.2	5.2	5.2	76	1.3	2	6	180	0.0	1006.2	117	0.000	0.1
20101221 14:10	5.2	5.2	5.2	76	1.3	3	6	158	0.0	1006.3	102	0.000	0.0
20101221 14:15	5.2	5.2	5.2	77	1.5	3	6	158	0.0	1006.2	89	0.000	0.0
20101221 14:20	5.1	5.1	5.1	77	1.4	5	8	158	0.0	1006.3	85	0.000	0.0
20101221 14:25	5.1	5.1	5.1	77	1.4	5	8	158	0.0	1006.3	104	0.000	0.0
20101221 14:30	5.1	5.1	5.1	77	1.4	3	6	158	0.0	1006.3	106	0.000	0.0
20101221 14:35	5.1	5.1	5.1	78	1.5	3	8	158	0.0	1006.2	94	0.000	0.0
20101221 14:40	5.1	5.1	5.1	78	1.5	2	8	158	0.0	1006.2	83	0.000	0.0
20101221 14:45	5.1	5.1	5.1	78	1.5	3	6	158	0.0	1006.2	93	0.000	0.0
20101221 14:50	5.1	5.1	5.1	78	1.5	3	6	158	0.0	1006.1	76	0.000	0.0
20101221 14:55	5.1	5.1	5.1	78	1.5	5	8	158	0.0	1006.2	60	0.000	0.0
20101221 15:00	5.0	5.0	5.0	77	1.3	5	6	158	0.0	1006.2	57	0.051	0.0
20101221 15:05	5.0	5.0	5.0	77	1.3	5	8	180	0.0	1006.2	57	0.000	0.0
20101221 15:10	4.9	4.9	4.9	78	1.4	3	8	158	0.0	1006.2	47	0.000	0.0
20101221 15:15	4.8	4.8	4.8	78	1.3	3	6	202	0.0	1006.4	43	0.000	0.0
20101221 15:20	4.7	4.7	4.7	79	1.4	2	5	202	0.0	1006.3	40	0.000	0.0
20101221 15:25	4.6	4.6	4.6	79	1.3	3	10	202	0.0	1006.4	35	0.000	0.0
20101221 15:30	4.5	3.0	4.5	77	0.8	6	10	180	0.0	1006.4	29	0.000	0.0
20101221 15:35	4.4	4.4	4.4	77	0.8	5	8	180	0.0	1006.4	32	0.000	0.0
20101221 15:40	4.3	4.3	4.3	78	0.8	3	6	202	0.0	1006.5	42	0.000	0.0
20101221 15:45	4.3	4.3	4.3	78	0.8	2	5	202	0.0	1006.5	39	0.000	0.0
20101221 15:50	4.2	4.2	4.2	79	0.9	3	6	202	0.0	1006.5	24	0.000	0.0
20101221 15:55	4.2	4.2	4.2	79	0.9	2	5	202	0.0	1006.5	14	0.000	0.0
20101221 16:00	4.1	4.1	4.1	79	0.7	2	5	202	0.0	1006.8	9	0.025	0.0
20101221 16:05	3.9	3.9	3.9	79	0.6	2	5	202	0.0	1006.8	6	0.000	0.0
20101221 16:10	3.8	3.8	3.8	80	0.7	5	8	202	0.0	1006.8	5	0.000	0.0
20101221 16:15	3.8	3.8	3.8	80	0.6	5	8	158	0.0	1006.8	0	0.000	0.0
20101221 16:20	3.7	3.7	3.7	79	0.4	5	8	180	0.0	1006.6	0	0.000	0.0
20101221 16:25	3.7	3.7	3.7	79	0.4	5	8	158	0.0	1006.6	0	0.000	0.0
20101221 16:30	3.6	1.9	3.6	78	0.1	6	10	180	0.0	1006.5	0	0.000	0.0
20101221 16:35	3.6	3.6	3.6	78	0.1	5	10	180	0.0	1006.4	0	0.000	0.0
20101221 16:40	3.6	3.6	3.6	78	0.1	5	8	158	0.0	1006.4	0	0.000	0.0
20101221 16:45	3.5	3.5	3.5	78	0.0	5	6	158	0.0	1006.4	0	0.000	0.0
20101221 16:50	3.4	3.4	3.4	79	0.2	2	5	180	0.0	1006.3	0	0.000	0.0
20101221 16:55	3.4	3.4	3.4	79	0.1	0	3	180	0.0	1006.3	0	0.000	0.0
20101221 17:00	3.3	3.3	3.3	79	0.0	2	5	180	0.0	1006.2	0	0.000	0.0
20101221 17:05	3.3	3.3	3.3	79	-0.0	3	5	180	0.0	1006.3	0	0.000	0.0
20101221 17:10	3.2	3.2	3.2	79	-0.1	3	5	180	0.0	1006.5	0	0.000	0.0
20101221 17:15	3.2	3.2	3.2	79	-0.1	3	6	180	0.0	1006.5	0	0.000	0.0
20101221 17:20	3.2	3.2	3.2	79	-0.1	3	6	180	0.0	1006.5	0	0.000	0.0
20101221 17:25	3.2	3.2	3.2	79	-0.1	5	6	180	0.0	1006.5	0	0.000	0.0
20101221 17:30	3.2	3.2	3.2	78	-0.3	3	6	180	0.0	1006.4	0	0.000	0.0
20101221 17:35	3.2	3.2	3.2	78	-0.3	3	5	180	0.0	1006.6	0	0.000	0.0
20101221 17:40	3.2	3.2	3.2	78	-0.3	3	5	180	0.0	1006.6	0	0.000	0.0
20101221 17:45	3.2	3.2	3.2	77	-0.5	2	6	202	0.0	1006.7	0	0.000	0.0
20101221 17:50	3.1	3.1	3.1	76	-0.7	3	6	202	0.0	1006.8	0	0.000	0.0
20101221 17:55	3.1	3.1	3.1	76	-0.7	2	5	202	0.0	1006.8	0	0.000	0.0
20101221 18:00	3.1	3.1	3.1	77	-0.5	0	5	202	0.0	1006.9	0	0.025	0.0
20101221 18:05	2.9	2.9	2.9	78	-0.6	3	5	202	0.0	1007.0	0	0.000	0.0
20101221 18:10	2.7	2.7	2.7	79	-0.6	2	5	248	0.0	1007.0	0	0.000	0.0
20101221 18:15	2.4	2.4	2.4	80	-0.7	0	3	248	0.0	1006.9	0	0.000	0.0
20101221 18:20	2.3	2.3	2.3	81	-0.6	0	2	248	0.0	1006.9	0	0.000	0.0
20101221 18:25	2.2	2.2	2.2	82	-0.6	0	3	248	0.0	1006.8	0	0.000	0.0
20101221 18:30	2.1	2.1	2.1	83	-0.5	0	3	248	0.0	1006.7	0	0.000	0.0
20101221 18:35	2.0	2.0	2.0	83	-0.6	0	2	248	0.0	1006.8	0	0.000	0.0
20101221 18:40	2.0	2.0	2.0	84	-0.4	0	0	-100000	0.0	1006.7	0	0.000	0.0
20101221 18:45	2.0	2.0	2.0	84	-0.4	0	0	-100000	0.0	1006.8	0	0.000	0.0
20101221 18:50	2.0	2.0	2.0	83	-0.6	0	0	-100000	0.0	1006.7	0	0.000	0.0
20101221 18:55	1.9	1.9	1.9	83	-0.7	0	2	248	0.0	1006.7	0	0.000	0.0
20101221 19:00	1.8	1.8	1.8	83	-0.7	0	3	248	0.0	1006.8	0	0.000	0.0
20101221 19:05	1.8	1.8	1.8	83	-0.8	0	5	248	0.0	1006.8	0	0.000	0.0
20101221 19:10	1.8	1.8	1.8	83	-0.8	0	3	248	0.0	1006.8	0	0.000	0.0
20101221 19:15	1.8	1.8	1.8	83	-0.8	0	3	248	0.0	1006.7	0	0.000	0.0
20101221 19:20	1.8	1.8	1.8	83	-0.7	0	0	-100000	0.0	1006.8	0	0.000	0.0
20101221 19:25	1.8	1.8	1.8	83	-0.7	0	0	-100000	0.0	1006.8	0	0.000	0.0
20101221 19:30	1.7	1.7	1.7	83	-0.9	0	0	-100000	0.0	1006.8	0	0.000	0.0
20101221 19:35	1.6	1.6	1.6	83	-1.0	0	0	-100000	0.0	1006.8	0	0.000	0.0
20101221 19:40	1.4	1.4	1.4	83	-1.1	2	3	248	0.0	1006.8	0	0.000	0.0
20101221 19:45	1.3	1.3	1.3	83	-1.2	0	3	248	0.0	1006.7	0	0.000	0.0
20101221 19:50	1.3	1.3	1.3	84	-1.1	0	2	248	0.0	1006.7	0	0.000	0.0
20101221 19:55	1.3	1.3	1.3	84	-1.1	0	0	-100000	0.0	1006.9	0	0.000	0.0
20101221 20:00	1.3	1.3	1.3	84	-1.1	0	0	-100000	0.0	1006.8	0	0.000	0.0
20101221 20:05	1.3	1.3	1.3	84	-1.1	0	2	248	0.0	1006.8	0	0.000	0.0
20101221 20:10	1.3	1.3	1.3	83	-1.2	0	0	-100000	0.0	1006.8	0	0.000	0.0
20101221 20:15	1.3	1.3	1.3	83	-1.3	0	0	-100000	0.0	1006.8	0	0.000	0.0
20101221 20:20	1.2	1.2	1.2	83	-1.3	0	0	-100000	0.0	1006.7	0	0.000	0.0
20101221 20:25	1.2	1.2	1.2	84	-1.2	0	0	-100000	0.0	1006.8	0	0.000	0.0
20101221 20:30	1.2	1.2	1.2	84	-1.2	0	0	-100000	0.0	1006.8	0	0.000	0.0
20101221 20:35	1.2	1.2	1.2	84	-1.2	0	2	248	0.0	1006.8	0	0.000	0.0
20101221 20:40	1.1	1.1	1.1	84	-1.3	0	2	248	0.0	1006.8	0	0.000	0.0
20101221 20:45	1.1	1.1	1.1	84	-1.3	0	0	-100000	0.0	1006.8	0	0.000	0.0
20101221 20:50	1.0	1.0	1.0	84	-1.4	0	0	-100000	0.0	1006.8	0	0.000	0.0
20101221 20:55	1.1	1.1	1.1	85	-1.2	0	0	-100000	0.0	1006.9	0	0.000	0.0
20101221 21:00	1.1	1.1	1.1	85	-1.1	0	0	-100000	0.0	1006.8	0	0.000	0.0
20101221 21:05	1.1	1.1	1.1	84	-1.3	0	0	-100000	0.0	1006.6	0	0.000	0.0
20101221 21:10	1.1	1.1	1.1	84	-1.3	0	0	-100000	0.0	1006.6	0	0.000	0.0
20101221 21:15	1.1	1.1	1.1	84	-1.3	0	0	-100000	0.0	1006.5	0	0.000	0.0
20101221 21:20	1.1	1.1	1.1	84	-1.3	0	5	248	0.0	1006.5	0	0.000	0.0
20101221 21:25	1.1	1.1	1.1	84	-1.3	2	5	248	0.0	1006.6	0	0.000	0.0
20101221 21:30	1.1	1.1	1.1	84	-1.3	0	3	248	0.0	1006.5	0	0.000	0.0
20101221 21:35	1.1	1.1	1.1	84	-1.3	0	3	248	0.0	1006.5	0	0.000	0.0
20101221 21:40	1.1	1.1	1.1	85	-1.1	0	2	248	0.0	1006.5	0	0.000	0.0
20101221 21:45	1.2	1.2	1.2	85	-1.1	2	5	248	0.0	1006.5	0	0.000	0.0
20101221 21:50	1.2	1.2	1.2	85	-1.1	3	5	248	0.0	1006.6	0	0.000	0.0
20101221 21:55	1.2	1.2	1.2	85	-1.0	2	5	248	0.0	1006.5	0	0.000	0.0
20101221 22:00	1.3	1.3	1.3	85	-1.0	2	5	248	0.0	1006.6	0	0.000	0.0
20101221 22:05	1.3	1.3	1.3	85	-0.9	2	3	248	0.0	1006.3	0	0.000	0.0
20101221 22:10	1.3	1.3	1.3	84	-1.1	3	6	248	0.0	1006.4	0	0.000	0.0
20101221 22:15	1.3	1.3	1.3	84	-1.1	5	8	135	0.0	1006.3	0	0.000	0.0
20101221 22:20	1.3	1.3	1.3	85	-1.0	2	6	135	0.0	1006.1	0	0.000	0.0
20101221 22:25	1.2	1.2	1.2	85	-1.1	2	5	135	0.0	1006.1	0	0.000	0.0
20101221 22:30	1.2	1.2	1.2	86	-0.9	0	3	135	0.0	1005.8	0	0.000	0.0
20101221 22:35	1.1	1.1	1.1	86	-1.0	0	2	135	0.0	1005.7	0	0.000	0.0
20101221 22:40	1.1	1.1	1.1	86	-1.0	0	2	135	0.0	1005.7	0	0.000	0.0
20101221 22:45	1.1	1.1	1.1	86	-1.0	0	0	-100000	0.0	1005.6	0	0.000	0.0
20101221 22:50	1.1	1.1	1.1	86	-1.0	2	5	135	0.0	1005.5	0	0.000	0.0
20101221 22:55	1.2	1.2	1.2	85	-1.1	2	6	135	0.0	1005.2	0	0.000	0.0
20101221 23:00	1.2	1.2	1.2	85	-1.1	3	5	135	0.0	1005.2	0	0.000	0.0
20101221 23:05	1.2	1.2	1.2	85	-1.1	2	6	135	0.0	1005.0	0	0.000	0.0
20101221 23:10	1.2	1.2	1.2	85	-1.0	2	8	135	0.0	1005.1	0	0.000	0.0
20101221 23:15	1.3	1.3	1.3	85	-1.0	2	3	135	0.0	1005.1	0	0.000	0.0
20101221 23:20	1.3	1.3	1.3	85	-0.9	2	5	135	0.0	1004.9	0	0.000	0.0
20101221 23:25	1.3	1.3	1.3	85	-0.9	0	3	135	0.0	1005.1	0	0.000	0.0
20101221 23:30	1.3	1.3	1.3	85	-0.9	0	3	135	0.0	1005.0	0	0.000	0.0
20101221 23:35	1.3	1.3	1.3	85	-0.9	0	3	135	0.0	1005.1	0	0.000	0.0
20101221 23:40	1.3	1.3	1.3	85	-0.9	0	0	-100000	0.0	1005.2	0	0.000	0.0
20101221 23:45	1.3	1.3	1.3	85	-0.9	0	0	-100000	0.0	1005.2	0	0.000	0.0
20101221 23:50	1.3	1.3	1.3	85	-0.9	3	6	135	0.0	1005.0	0	0.000	0.0
20101221 23:55	1.3	1.3	1.3	85	-0.9	2	6	135	0.0	1004.9	0	0.000	0.0



Please note the license to use and transfer of this data:
http://creativecommons.org/licenses/by-nc-sa/3.0/deed.en

Bitte beachten sie die Lizenz zur Verwertung und Weitergabe der Daten:
http://creativecommons.org/licenses/by-nc-sa/3.0/deed.de

zurück zur Übersicht der Archivdaten (Monats und Tagesdaten)

Cookies helfen bei der Bereitstellung von Inhalten. Durch die Nutzung dieser Seiten erklärst du dich damit einverstanden, dass Cookies auf deinem Rechner gespeichert werden. Weitere Information